createdAt,value
2022-11-24T00:02:43.877Z,94.35
2022-11-24T00:08:03.121Z,94.54
2022-11-24T00:13:21.520Z,94.47
2022-11-24T00:18:50.465Z,94.01
2022-11-24T00:23:59.950Z,94.11
2022-11-24T00:29:18.876Z,94.16
2022-11-24T00:34:37.384Z,93.96
2022-11-24T00:39:56.360Z,93.95
2022-11-24T00:45:15.998Z,93.99
2022-11-24T00:50:35.325Z,94.06
2022-11-24T00:55:54.720Z,94.28
2022-11-24T01:01:14.105Z,94.73
2022-11-24T01:06:33.487Z,95.22
2022-11-24T01:11:52.767Z,95.34
2022-11-24T01:17:12.291Z,95.42
2022-11-24T01:22:32.008Z,95.14
2022-11-24T01:27:51.774Z,95.09
2022-11-24T01:33:10.306Z,94.44
2022-11-24T01:38:29.443Z,94.25
2022-11-24T01:43:48.256Z,94.08
2022-11-24T01:49:07.088Z,93.78
2022-11-24T01:54:26.034Z,93.6
2022-11-24T01:59:45.015Z,93.53
2022-11-24T02:05:04.014Z,93.37
2022-11-24T02:10:23.614Z,93.2
2022-11-24T02:15:42.989Z,93.26
2022-11-24T02:21:01.799Z,93.28
2022-11-24T02:26:21.957Z,92.78
2022-11-24T02:31:40.843Z,92.12
2022-11-24T02:36:59.035Z,91.34
2022-11-24T02:42:18.076Z,91.04
2022-11-24T02:47:37.721Z,90.96
2022-11-24T02:52:57.381Z,91.38
2022-11-24T02:58:17.137Z,91.36
2022-11-24T03:03:35.950Z,91.29
2022-11-24T03:08:55.626Z,91.39
2022-11-24T03:15:29.966Z,91.35
2022-11-24T03:19:32.836Z,91.44
2022-11-24T03:24:51.656Z,91.68
2022-11-24T03:30:11.000Z,91.53
2022-11-24T03:35:30.045Z,91.49
2022-11-24T03:40:49.572Z,91.2
2022-11-24T03:46:08.510Z,90.88
2022-11-24T03:51:27.623Z,90.75
2022-11-24T03:56:47.024Z,90.59
2022-11-24T04:02:05.196Z,90.74
2022-11-24T04:07:23.996Z,91.09
2022-11-24T04:12:42.810Z,91.03
2022-11-24T04:18:01.856Z,90.91
2022-11-24T04:23:21.445Z,90.48
2022-11-24T04:28:41.095Z,90.08
2022-11-24T04:34:00.132Z,89.6
2022-11-24T04:39:26.145Z,89.11
2022-11-24T04:44:39.183Z,88.48
2022-11-24T04:49:58.101Z,88.51
2022-11-24T04:55:16.509Z,88.3
2022-11-24T05:00:36.150Z,88.41
2022-11-24T05:05:55.650Z,88.71
2022-11-24T05:11:15.277Z,88.51
2022-11-24T05:16:34.572Z,88.49
2022-11-24T05:21:53.912Z,88.46
2022-11-24T05:27:12.989Z,88.4
2022-11-24T05:32:32.364Z,88.58
2022-11-24T05:37:51.680Z,88.6
2022-11-24T05:43:10.734Z,88.53
2022-11-24T05:48:30.222Z,88.53
2022-11-24T05:53:49.465Z,88.99
2022-11-24T05:59:10.065Z,89.35
2022-11-24T06:04:28.341Z,89.42
2022-11-24T06:09:47.955Z,88.9
2022-11-24T06:15:07.297Z,89.4
2022-11-24T06:20:31.283Z,89.86
2022-11-24T06:25:50.169Z,90.51
2022-11-24T06:31:03.716Z,90.54
2022-11-24T06:36:22.521Z,90.96
2022-11-24T06:41:41.498Z,91.51
2022-11-24T06:47:00.904Z,92.29
2022-11-24T06:52:20.983Z,92.8
2022-11-24T06:57:40.025Z,92.93
2022-11-24T07:02:59.000Z,93.54
2022-11-24T07:08:18.368Z,93.99
2022-11-24T07:14:52.501Z,94.46
2022-11-24T07:19:09.013Z,94.68
2022-11-24T07:24:17.096Z,94.63
2022-11-24T07:29:36.150Z,94.77
2022-11-24T07:34:54.926Z,95
2022-11-24T07:43:27.953Z,95.03
2022-11-24T07:47:44.509Z,94.61
2022-11-24T07:56:11.203Z,94.29
2022-11-24T08:01:30.810Z,94.31
2022-11-24T08:06:50.324Z,93.94
2022-11-24T08:13:24.497Z,94.37
2022-11-24T08:22:48.905Z,94.56
2022-11-24T08:31:22.114Z,93.92
2022-11-24T08:38:47.055Z,95.05
2022-11-24T08:44:06.415Z,95.46
2022-11-24T08:49:26.233Z,95.17
2022-11-24T08:54:44.916Z,94.79
2022-11-24T09:00:04.619Z,95.46
2022-11-24T09:05:50.476Z,95.99
2022-11-24T09:13:56.555Z,95.87
2022-11-24T09:18:12.010Z,95.82
2022-11-24T09:21:20.218Z,95.94
2022-11-24T09:27:54.366Z,96.29
2022-11-24T09:32:09.794Z,96.35
2022-11-24T09:37:17.151Z,96.27
2022-11-24T09:43:51.290Z,96.65
2022-11-24T09:47:56.253Z,97.05
2022-11-24T09:53:15.981Z,97.6
2022-11-24T09:58:34.690Z,97.92
2022-11-24T10:03:52.442Z,97.57
2022-11-24T10:09:11.739Z,96.94
2022-11-24T10:14:31.507Z,96.01
2022-11-24T10:19:50.996Z,94.52
2022-11-24T10:25:10.498Z,93.78
2022-11-24T10:30:29.793Z,92.95
2022-11-24T10:35:48.904Z,92.51
2022-11-24T10:41:07.636Z,91.6
2022-11-24T10:46:26.904Z,91.67
2022-11-24T10:51:47.052Z,91.99
2022-11-24T10:57:05.971Z,89.18
2022-11-24T11:02:25.460Z,87.59
2022-11-24T11:07:44.483Z,86.2
2022-11-24T11:13:03.443Z,86.25
2022-11-24T11:18:21.642Z,86.34
2022-11-24T11:23:41.015Z,84.76
2022-11-24T11:34:25.178Z,87.13
2022-11-24T11:39:42.530Z,87.74
2022-11-24T11:44:59.009Z,88.75
2022-11-24T11:50:18.215Z,91.24
2022-11-24T11:55:37.231Z,91.09
2022-11-24T12:00:56.628Z,91.22
2022-11-24T12:06:15.933Z,89.91
2022-11-24T12:11:35.332Z,85.86
2022-11-24T12:16:54.131Z,83.35
2022-11-24T12:22:13.107Z,84.74
2022-11-24T12:27:32.039Z,85.55
2022-11-24T12:32:51.690Z,85.5
2022-11-24T12:38:10.447Z,85.33
2022-11-24T12:43:29.928Z,85.2
2022-11-24T12:48:49.581Z,85.58
2022-11-24T12:54:09.229Z,85.67
2022-11-24T12:59:27.605Z,85.37
2022-11-24T13:04:46.902Z,84.45
2022-11-24T13:10:06.499Z,84.78
2022-11-24T13:15:44.957Z,85.4
2022-11-24T13:20:53.630Z,84.73
2022-11-24T13:26:03.585Z,84.19
2022-11-24T13:31:23.280Z,82.82
2022-11-24T13:36:43.334Z,82.9
2022-11-24T13:42:02.301Z,81.86
2022-11-24T13:47:47.793Z,82.45
2022-11-24T13:53:07.122Z,83.54
2022-11-24T13:58:26.451Z,84.78
2022-11-24T14:04:00.933Z,85.88
2022-11-24T14:09:04.445Z,85.82
2022-11-24T14:14:24.198Z,86.54
2022-11-24T14:19:43.502Z,86.79
2022-11-24T14:26:17.670Z,86.75
2022-11-24T14:30:21.776Z,86.46
2022-11-24T14:35:41.386Z,86.23
2022-11-24T14:41:03.064Z,86.26
2022-11-24T14:46:20.746Z,85.72
2022-11-24T14:51:40.022Z,85.47
2022-11-24T14:56:58.991Z,84.8
2022-11-24T15:02:18.293Z,84.63
2022-11-24T15:07:37.871Z,85
2022-11-24T15:12:56.260Z,85.61
2022-11-24T15:18:15.271Z,86.23
2022-11-24T15:23:34.440Z,86.47
2022-11-24T15:28:53.680Z,86.62
2022-11-24T15:34:13.376Z,86.63
2022-11-24T15:39:32.502Z,86.48
2022-11-24T15:44:52.123Z,86.5
2022-11-24T15:50:11.600Z,86.38
2022-11-24T15:55:30.540Z,86.85
2022-11-24T16:00:50.331Z,87.28
2022-11-24T16:06:24.035Z,87.61
2022-11-24T16:11:28.757Z,88.11
2022-11-24T16:16:48.529Z,88.06
2022-11-24T16:22:07.174Z,88.69
2022-11-24T16:27:26.387Z,89.26
2022-11-24T16:32:45.466Z,90.01
2022-11-24T16:38:04.299Z,90.73
2022-11-24T16:43:23.279Z,91.7
2022-11-24T16:48:43.480Z,92.16
2022-11-24T16:54:01.943Z,91.69
2022-11-24T16:59:20.991Z,92.17
2022-11-24T17:04:40.685Z,93.12
2022-11-24T17:09:59.693Z,94.47
2022-11-24T17:15:32.915Z,95.57
2022-11-24T17:20:38.192Z,94.8
2022-11-24T17:25:57.043Z,95.23
2022-11-24T17:31:16.105Z,94.93
2022-11-24T17:36:35.017Z,94.38
2022-11-24T17:41:54.288Z,93.64
2022-11-24T17:47:13.399Z,94.88
2022-11-24T17:52:32.543Z,95.37
2022-11-24T17:57:52.063Z,95.37
2022-11-24T18:03:10.915Z,94.56
2022-11-24T18:08:30.197Z,92.83
2022-11-24T18:13:58.205Z,92.59
2022-11-24T18:19:09.539Z,94.83
2022-11-24T18:24:28.031Z,96.44
2022-11-24T18:29:48.967Z,96.48
2022-11-24T18:35:07.028Z,96.96
2022-11-24T18:40:26.124Z,97.33
2022-11-24T18:45:45.512Z,97.84
2022-11-24T18:51:04.469Z,97.86
2022-11-24T18:56:24.008Z,98.45
2022-11-24T19:01:43.584Z,98.59
2022-11-24T19:07:02.519Z,98.69
2022-11-24T19:13:36.701Z,98.96
2022-11-24T19:17:45.144Z,99.28
2022-11-24T19:23:02.265Z,99.03
2022-11-24T19:28:21.391Z,98.92
2022-11-24T19:33:41.071Z,99.23
2022-11-24T19:39:00.781Z,99.33
2022-11-24T19:44:18.568Z,99.4
2022-11-24T19:49:38.156Z,99.68
2022-11-24T19:54:57.270Z,99.73
2022-11-24T20:00:16.157Z,99.49
2022-11-24T20:05:35.178Z,99.65
2022-11-24T20:10:54.614Z,99.88
2022-11-24T20:16:13.980Z,99.99
2022-11-24T20:21:33.207Z,99.99
2022-11-24T20:26:52.632Z,99.99
2022-11-24T20:32:11.901Z,99.99
2022-11-24T20:37:31.546Z,99.99
2022-11-24T20:42:50.936Z,99.99
2022-11-24T20:48:10.216Z,99.99
2022-11-24T20:53:29.132Z,99.99
2022-11-24T20:58:48.620Z,99.99
2022-11-24T21:04:07.604Z,99.99
2022-11-24T21:09:26.933Z,99.99
2022-11-24T21:14:45.744Z,99.99
2022-11-24T21:20:05.439Z,99.99
2022-11-24T21:25:24.921Z,99.99
2022-11-24T21:30:44.754Z,99.99
2022-11-24T21:36:04.612Z,99.99
2022-11-24T21:41:23.521Z,99.99
2022-11-24T21:46:48.008Z,99.99
2022-11-24T21:52:02.917Z,99.99
2022-11-24T21:57:22.304Z,99.99
2022-11-24T22:02:51.476Z,99.99
2022-11-24T22:08:01.187Z,99.99
2022-11-24T22:13:20.852Z,99.99
2022-11-24T22:18:40.234Z,99.99
2022-11-24T22:24:00.002Z,99.99
2022-11-24T22:29:19.139Z,99.99
2022-11-24T22:34:38.946Z,99.99
2022-11-24T22:39:57.822Z,99.99
2022-11-24T22:45:16.756Z,99.99
2022-11-24T22:50:37.244Z,99.99
2022-11-24T22:55:57.000Z,99.99
2022-11-24T23:01:15.980Z,99.99
2022-11-24T23:06:35.205Z,99.99
2022-11-24T23:11:54.987Z,99.99
2022-11-24T23:17:14.733Z,99.99
2022-11-24T23:22:33.518Z,99.99
2022-11-24T23:27:52.406Z,99.99
2022-11-24T23:33:11.513Z,99.99
2022-11-24T23:38:31.253Z,99.99
2022-11-24T23:43:58.679Z,99.99
2022-11-24T23:49:09.847Z,99.99
2022-11-24T23:54:28.821Z,99.99
2022-11-24T23:59:48.279Z,99.99
